createdAt,value
2022-08-05T00:07:58.729Z,2.42
2022-08-05T00:17:41.071Z,2.33
2022-08-05T00:27:43.506Z,2.40
2022-08-05T00:37:52.645Z,2.90
2022-08-05T00:47:57.812Z,2.55
2022-08-05T00:58:07.727Z,2.50
2022-08-05T01:08:41.080Z,2.83
2022-08-05T01:18:40.849Z,2.45
2022-08-05T01:29:05.175Z,2.50
2022-08-05T01:39:07.462Z,3.08
2022-08-05T01:49:22.849Z,3.58
2022-08-05T01:59:28.380Z,3.15
2022-08-05T02:09:32.728Z,2.70
2022-08-05T02:19:47.272Z,2.47
2022-08-05T02:29:59.623Z,3.00
2022-08-05T02:40:03.424Z,3.00
2022-08-05T02:50:08.080Z,2.42
2022-08-05T03:00:14.888Z,3.15
2022-08-05T03:10:24.379Z,4.22
2022-08-05T03:20:27.011Z,4.70
2022-08-05T03:30:34.087Z,5.05
2022-08-05T03:40:40.343Z,4.30
2022-08-05T03:50:59.024Z,7.37
2022-08-05T04:01:11.136Z,6.00
2022-08-05T04:11:15.287Z,6.13
2022-08-05T04:22:09.623Z,5.20
2022-08-05T04:31:39.731Z,6.28
2022-08-05T04:41:41.733Z,6.80
2022-08-05T04:51:44.308Z,6.43
2022-08-05T05:02:08.338Z,6.60
2022-08-05T05:12:08.266Z,6.55
2022-08-05T05:22:24.551Z,6.40
2022-08-05T05:32:28.405Z,8.30
2022-08-05T05:42:31.366Z,8.93
2022-08-05T05:52:37.991Z,10.35
2022-08-05T06:02:42.820Z,11.82
2022-08-05T06:12:44.707Z,12.48
2022-08-05T06:22:47.177Z,12.40
2022-08-05T06:32:50.808Z,13.38
2022-08-05T06:42:52.960Z,12.27
2022-08-05T06:53:03.936Z,15.82
2022-08-05T07:03:13.701Z,13.07
2022-08-05T07:13:57.989Z,14.02
2022-08-05T07:24:01.324Z,19.02
2022-08-05T07:34:03.481Z,19.23
2022-08-05T07:44:18.452Z,17.27
2022-08-05T07:54:30.821Z,19.67
2022-08-05T08:04:37.667Z,18.98
2022-08-05T08:14:40.893Z,20.02
2022-08-05T08:24:51.111Z,18.65
2022-08-05T08:34:54.224Z,20.35
2022-08-05T08:45:25.336Z,20.15
2022-08-05T08:55:32.129Z,25.73
2022-08-05T09:06:07.437Z,26.10
2022-08-05T09:16:14.646Z,23.75
2022-08-05T09:26:20.844Z,25.30
2022-08-05T09:36:27.883Z,26.95
2022-08-05T09:46:35.525Z,33.25
2022-08-05T09:56:40.190Z,32.70
2022-08-05T10:06:59.361Z,35.50
2022-08-05T10:17:39.791Z,38.85
2022-08-05T10:28:13.435Z,34.30
2022-08-05T10:38:02.764Z,28.33
2022-08-05T10:48:31.589Z,18.50
2022-08-05T10:58:48.589Z,13.33
2022-08-05T11:09:13.242Z,8.07
2022-08-05T11:20:10.472Z,5.83
2022-08-05T11:30:00.292Z,3.30
2022-08-05T11:40:03.878Z,3.78
2022-08-05T11:50:07.094Z,3.05
2022-08-05T12:00:27.569Z,2.55
2022-08-05T12:10:42.997Z,2.00
2022-08-05T12:20:48.167Z,1.98
2022-08-05T12:30:51.473Z,2.05
2022-08-05T12:40:56.219Z,2.63
2022-08-05T12:52:10.841Z,2.22
2022-08-05T13:02:00.941Z,2.58
2022-08-05T13:12:07.907Z,1.60
2022-08-05T13:22:14.989Z,1.67
2022-08-05T13:32:35.108Z,1.30
2022-08-05T13:42:41.610Z,1.42
2022-08-05T13:52:43.363Z,1.17
2022-08-05T14:02:45.828Z,4.22
2022-08-05T14:12:49.273Z,3.08
2022-08-05T14:23:00.241Z,1.70
2022-08-05T14:33:02.095Z,2.17
2022-08-05T14:43:04.911Z,1.90
2022-08-05T14:53:13.229Z,2.60
2022-08-05T15:03:15.455Z,4.88
2022-08-05T15:13:17.377Z,1.40
2022-08-05T15:23:19.800Z,1.20
2022-08-05T15:34:19.520Z,1.00
2022-08-05T15:43:45.687Z,1.25
2022-08-05T15:53:51.847Z,0.60
2022-08-05T16:03:53.645Z,0.60
2022-08-05T16:13:55.301Z,0.68
2022-08-05T16:24:01.606Z,0.70
2022-08-05T16:34:05.698Z,0.60
2022-08-05T16:44:14.044Z,0.50
2022-08-05T16:54:22.491Z,0.57
2022-08-05T17:04:29.206Z,0.70
2022-08-05T17:14:37.362Z,1.30
2022-08-05T17:24:45.310Z,1.10
2022-08-05T17:34:49.687Z,1.00
2022-08-05T17:44:51.678Z,0.70
2022-08-05T17:54:53.528Z,0.80
2022-08-05T18:04:55.505Z,0.32
2022-08-05T18:14:57.269Z,0.60
2022-08-05T18:25:00.543Z,0.63
2022-08-05T18:35:03.503Z,0.57
2022-08-05T18:45:07.901Z,0.30
2022-08-05T18:55:11.917Z,0.60
2022-08-05T19:06:05.840Z,0.40
2022-08-05T19:15:59.842Z,0.50
2022-08-05T19:26:01.775Z,0.52
2022-08-05T19:36:06.397Z,0.68
2022-08-05T19:46:16.878Z,0.50
2022-08-05T19:56:32.631Z,0.30
2022-08-05T20:06:45.993Z,0.50
2022-08-05T20:16:48.613Z,0.50
2022-08-05T20:26:50.452Z,0.40
2022-08-05T20:36:52.231Z,0.60
2022-08-05T20:46:54.533Z,9.47
2022-08-05T20:56:57.657Z,0.60
2022-08-05T21:07:00.231Z,0.50
2022-08-05T21:17:05.143Z,0.60
2022-08-05T21:27:07.689Z,0.40
2022-08-05T21:37:09.700Z,0.30
2022-08-05T21:47:17.315Z,0.40
2022-08-05T21:57:33.722Z,0.40
2022-08-05T22:07:40.436Z,0.57
2022-08-05T22:18:00.141Z,0.50
2022-08-05T22:28:08.390Z,0.40
2022-08-05T22:38:13.538Z,0.40
2022-08-05T22:48:16.977Z,0.50
2022-08-05T22:58:28.569Z,0.40
2022-08-05T23:08:30.744Z,0.63
2022-08-05T23:18:32.484Z,0.60
2022-08-05T23:28:34.187Z,0.57
2022-08-05T23:38:36.122Z,0.30
2022-08-05T23:48:37.857Z,0.50
2022-08-05T23:58:39.465Z,0.80
